Observations for Trim Patrick St
| Time | AQI | Temp °C | Hum % | Pres Pa | CO μg/m³ | H₂S μg/m³ | NO μg/m³ | NO₂ μg/m³ | O₃ μg/m³ | SO₂ μg/m³ | PM1 μg/m³ | PM2.5 μg/m³ | PM10 μg/m³ |
|---|---|---|---|---|---|---|---|---|---|---|---|---|---|
| Tuesday 4 August 2026 | |||||||||||||
| 03:18 | 1 | 16.3 | 87 | 38,459 | 0.17 | 0 | 1.3 | 23.47 | 34.58 | 0 | 7.14 | 12.31 | 13.54 |
| 03:17 | 1 | 16.3 | 87 | 38,459 | 0.16 | 0 | 1.23 | 23.21 | 35.74 | 0 | 8 | 11.63 | 12.79 |
| 03:16 | 1 | 16.3 | 87 | 38,460 | 0.16 | 0 | 1.28 | 24.95 | 30.68 | 0 | 8.86 | 13.68 | 15.05 |
| 03:15 | 1 | 16.3 | 87 | 38,460 | 0.17 | 0 | 1.26 | 23.96 | 41.11 | 0 | 7.14 | 10.26 | 11.28 |
| 03:14 | 1 | 16.3 | 87 | 38,460 | 0.16 | 0 | 1.46 | 18.36 | 30.61 | 0 | 8 | 12.31 | 13.54 |
| 03:13 | 1 | 16.3 | 87 | 38,460 | 0.16 | 0 | 1.42 | 28.03 | 46.36 | 0 | 8.86 | 12.31 | 13.54 |
| 03:12 | 1 | 16.3 | 87 | 38,460 | 0.16 | 0 | 1.37 | 22.41 | 29.38 | 0 | 7.14 | 11.62 | 12.78 |
| 03:11 | 1 | 16.3 | 87 | 38,460 | 0.16 | 0 | 1.4 | 25.42 | 41.29 | 0 | 7.14 | 10.26 | 11.28 |
| 03:10 | 1 | 16.3 | 87 | 38,460 | 0.16 | 0 | 1.25 | 25.31 | 46.74 | 0 | 8.86 | 10.97 | 12.06 |
| 03:09 | 1 | 16.3 | 87 | 38,460 | 0.16 | 0 | 1.21 | 24.44 | 35.86 | 0 | 8 | 11.63 | 12.8 |
| 03:08 | 1 | 16.3 | 87 | 38,460 | 0.16 | 0 | 1.25 | 23.95 | 43.03 | 0 | 6.29 | 9.58 | 10.54 |
| 03:07 | 1 | 16.3 | 87 | 38,460 | 0.14 | 0 | 1.14 | 26.37 | 45.59 | 0 | 8.86 | 11.63 | 12.79 |
| 03:06 | 1 | 16.3 | 87 | 38,460 | 0.16 | 0 | 1.13 | 23.46 | 43.04 | 0 | 8 | 10.95 | 12.04 |
| 03:05 | 1 | 16.3 | 87 | 38,460 | 0.15 | 0 | 1.54 | 24.44 | 47.39 | 0 | 7.14 | 10.26 | 11.29 |
| 03:04 | 1 | 16.3 | 87 | 38,460 | 0.21 | 0 | 1.63 | 24.45 | 38.5 | 0 | 8 | 10.95 | 12.04 |
| 03:03 | 1 | 16.3 | 87 | 38,460 | 0.15 | 0 | 1.5 | 24.66 | 44.14 | 0 | 7.14 | 10.27 | 11.3 |
| 03:02 | 1 | 16.3 | 87 | 38,460 | 0.15 | 0 | 1.61 | 26.51 | 47.29 | 0 | 8 | 12.34 | 13.57 |
| 03:01 | 1 | 16.3 | 87 | 38,460 | 0.15 | 0 | 1.41 | 17.71 | 27.79 | 0 | 8 | 12.33 | 13.56 |
| 03:00 | 1 | 16.3 | 87 | 38,460 | 0.15 | 0 | 1.25 | 26.27 | 45.32 | 0 | 8.86 | 13.71 | 15.08 |
| 02:59 | 1 | 16.3 | 87 | 38,460 | 0.15 | 0 | 1.27 | 26.03 | 47.75 | 0 | 8.86 | 11.65 | 12.82 |